createdAt,value
2023-04-30T00:03:11.440Z,57.99
2023-04-30T00:08:08.198Z,57.86
2023-04-30T00:13:14.138Z,57.89
2023-04-30T00:18:11.253Z,58.19
2023-04-30T00:23:07.946Z,58.22
2023-04-30T00:28:08.580Z,58.40
2023-04-30T00:33:08.437Z,58.67
2023-04-30T00:38:08.321Z,58.37
2023-04-30T00:43:36.084Z,58.94
2023-04-30T00:48:32.910Z,58.64
2023-04-30T00:53:29.772Z,58.89
2023-04-30T00:58:27.735Z,58.85
2023-04-30T01:03:36.537Z,58.70
2023-04-30T01:08:34.040Z,59.08
2023-04-30T01:13:56.783Z,59.28
2023-04-30T01:19:00.592Z,59.08
2023-04-30T01:24:33.507Z,59.14
2023-04-30T01:29:31.156Z,59.27
2023-04-30T01:34:34.320Z,59.19
2023-04-30T01:40:09.946Z,59.44
2023-04-30T01:45:15.621Z,59.49
2023-04-30T01:50:30.838Z,59.77
2023-04-30T01:55:38.413Z,59.67
2023-04-30T02:00:48.107Z,59.24
2023-04-30T02:05:45.076Z,59.29
2023-04-30T02:10:41.770Z,59.41
2023-04-30T02:15:38.670Z,59.36
2023-04-30T02:20:41.506Z,59.79
2023-04-30T02:25:39.135Z,59.94
2023-04-30T02:30:35.878Z,59.99
2023-04-30T02:35:42.445Z,60.30
2023-04-30T02:40:44.952Z,60.28
2023-04-30T02:46:00.288Z,60.30
2023-04-30T02:50:57.138Z,60.27
2023-04-30T02:55:53.773Z,60.17
2023-04-30T03:00:50.441Z,60.24
2023-04-30T03:05:52.921Z,60.47
2023-04-30T03:16:35.580Z,60.56
2023-04-30T03:21:32.686Z,60.35
2023-04-30T03:26:29.500Z,60.60
2023-04-30T03:31:26.403Z,60.59
2023-04-30T03:36:23.289Z,60.74
2023-04-30T03:41:22.036Z,60.65
2023-04-30T03:46:30.026Z,60.84
2023-04-30T03:51:28.525Z,60.88
2023-04-30T03:56:26.229Z,60.73
2023-04-30T04:01:23.063Z,60.91
2023-04-30T04:06:19.965Z,61.43
2023-04-30T04:11:16.786Z,61.32
2023-04-30T04:16:15.080Z,61.45
2023-04-30T04:21:11.966Z,61.50
2023-04-30T04:26:08.668Z,61.30
2023-04-30T04:31:15.919Z,61.87
2023-04-30T04:36:12.704Z,61.75
2023-04-30T04:41:11.723Z,61.63
2023-04-30T04:46:09.634Z,61.70
2023-04-30T04:51:08.260Z,61.65
2023-04-30T04:56:05.744Z,61.66
2023-04-30T05:01:02.563Z,61.48
2023-04-30T05:05:59.281Z,61.77
2023-04-30T05:11:18.690Z,61.86
2023-04-30T05:16:21.974Z,61.76
2023-04-30T05:21:18.517Z,61.59
2023-04-30T05:26:31.572Z,61.36
2023-04-30T05:31:28.062Z,61.20
2023-04-30T05:36:24.577Z,61.25
2023-04-30T05:41:22.041Z,60.63
2023-04-30T05:46:19.054Z,60.73
2023-04-30T05:51:16.062Z,60.43
2023-04-30T05:56:13.621Z,60.34
2023-04-30T06:01:11.202Z,59.70
2023-04-30T06:06:08.145Z,58.81
2023-04-30T06:11:05.389Z,57.48
2023-04-30T06:16:05.468Z,55.81
2023-04-30T06:21:02.285Z,55.00
2023-04-30T06:26:44.616Z,52.31
2023-04-30T06:31:41.445Z,51.42
2023-04-30T06:37:15.368Z,48.33
2023-04-30T06:42:12.124Z,48.17
2023-04-30T06:47:11.770Z,47.03
2023-04-30T06:52:12.024Z,46.04
2023-04-30T06:57:12.440Z,45.69
2023-04-30T07:03:10.312Z,44.63
2023-04-30T07:08:07.487Z,44.66
2023-04-30T07:14:04.226Z,44.72
2023-04-30T07:19:04.369Z,44.84
2023-04-30T07:24:01.140Z,45.17
2023-04-30T07:29:38.839Z,44.90
2023-04-30T07:34:35.582Z,45.29
2023-04-30T07:39:32.463Z,45.36
2023-04-30T07:44:32.485Z,44.96
2023-04-30T07:54:42.663Z,45.01
2023-04-30T07:59:39.423Z,45.08
2023-04-30T08:19:58.085Z,44.99
2023-04-30T08:24:55.802Z,45.05
2023-04-30T08:29:52.539Z,45.32
2023-04-30T08:34:49.175Z,45.25
2023-04-30T08:39:45.598Z,45.39
2023-04-30T08:44:46.747Z,45.37
2023-04-30T08:49:43.750Z,45.54
2023-04-30T08:54:40.330Z,45.27
2023-04-30T08:59:36.948Z,45.02
2023-04-30T09:04:33.485Z,44.78
2023-04-30T09:09:33.258Z,44.56
2023-04-30T09:14:29.793Z,44.35
2023-04-30T09:19:30.858Z,44.27
2023-04-30T09:24:27.287Z,44.51
2023-04-30T09:29:36.598Z,44.29
2023-04-30T09:34:36.053Z,44.54
2023-04-30T09:39:32.519Z,44.60
2023-04-30T09:44:31.416Z,44.38
2023-04-30T09:49:28.117Z,44.48
2023-04-30T09:54:25.940Z,45.17
2023-04-30T09:59:25.830Z,44.97
2023-04-30T10:04:22.544Z,44.49
2023-04-30T10:09:18.949Z,45.32
2023-04-30T10:14:17.958Z,44.56
2023-04-30T10:19:20.945Z,44.20
2023-04-30T10:24:19.295Z,44.42
2023-04-30T10:29:17.394Z,44.17
2023-04-30T10:34:26.883Z,44.52
2023-04-30T10:39:24.055Z,44.30
2023-04-30T10:44:25.617Z,43.72
2023-04-30T10:49:26.085Z,43.84
2023-04-30T10:54:27.707Z,43.86
2023-04-30T10:59:24.362Z,44.11
2023-04-30T11:04:20.855Z,43.78
2023-04-30T11:09:17.425Z,44.09
2023-04-30T11:14:20.404Z,43.82
2023-04-30T11:19:16.971Z,43.97
2023-04-30T11:24:13.413Z,43.54
2023-04-30T11:29:09.944Z,43.29
2023-04-30T11:34:07.145Z,43.26
2023-04-30T11:39:06.161Z,43.11
2023-04-30T11:44:02.591Z,42.95
2023-04-30T11:48:59.833Z,43.03
2023-04-30T11:53:57.156Z,43.07
2023-04-30T11:58:55.822Z,42.78
2023-04-30T12:03:55.117Z,42.69
2023-04-30T12:08:56.251Z,42.85
2023-04-30T12:13:56.865Z,42.94
2023-04-30T12:18:53.394Z,43.00
2023-04-30T12:23:50.039Z,42.39
2023-04-30T12:28:49.915Z,41.51
2023-04-30T12:33:54.509Z,41.42
2023-04-30T12:39:01.827Z,41.40
2023-04-30T12:44:33.656Z,42.22
2023-04-30T12:49:30.801Z,41.52
2023-04-30T12:54:31.517Z,41.70
2023-04-30T12:59:39.406Z,40.95
2023-04-30T13:04:36.454Z,41.38
2023-04-30T13:09:37.292Z,41.16
2023-04-30T13:14:33.971Z,41.06
2023-04-30T13:19:30.456Z,42.10
2023-04-30T13:24:27.003Z,41.72
2023-04-30T13:29:23.636Z,41.39
2023-04-30T13:34:20.230Z,42.14
2023-04-30T13:39:17.165Z,41.80
2023-04-30T13:44:13.651Z,41.42
2023-04-30T13:49:10.098Z,41.13
2023-04-30T13:54:06.712Z,40.91
2023-04-30T13:59:03.258Z,40.84
2023-04-30T14:03:59.964Z,41.21
2023-04-30T14:08:57.335Z,41.21
2023-04-30T14:13:54.496Z,40.78
2023-04-30T14:18:54.973Z,40.92
2023-04-30T14:23:52.184Z,40.60
2023-04-30T14:28:48.716Z,40.90
2023-04-30T14:33:45.498Z,40.95
2023-04-30T14:38:42.056Z,40.49
2023-04-30T14:43:38.578Z,40.87
2023-04-30T14:48:35.054Z,41.11
2023-04-30T14:53:32.938Z,41.28
2023-04-30T14:58:29.364Z,40.70
2023-04-30T15:03:26.080Z,40.88
2023-04-30T15:08:22.659Z,40.93
2023-04-30T15:13:19.152Z,41.20
2023-04-30T15:18:15.885Z,41.16
2023-04-30T15:23:12.482Z,40.92
2023-04-30T15:28:08.824Z,41.42
2023-04-30T15:33:05.347Z,41.18
2023-04-30T15:38:01.727Z,41.31
2023-04-30T15:42:58.199Z,41.00
2023-04-30T15:47:54.881Z,41.15
2023-04-30T15:52:51.170Z,41.56
2023-04-30T15:57:47.638Z,41.09
2023-04-30T16:02:44.185Z,41.02
2023-04-30T16:07:43.771Z,40.90
2023-04-30T16:12:41.112Z,41.19
2023-04-30T16:17:37.598Z,41.04
2023-04-30T16:22:34.458Z,40.93
2023-04-30T16:27:37.601Z,41.26
2023-04-30T16:32:34.275Z,41.56
2023-04-30T16:37:31.072Z,41.55
2023-04-30T16:42:32.566Z,41.18
2023-04-30T16:47:30.035Z,41.09
2023-04-30T16:52:38.618Z,41.60
2023-04-30T16:57:42.020Z,40.93
2023-04-30T17:02:48.881Z,41.28
2023-04-30T17:07:58.753Z,41.24
2023-04-30T17:12:57.587Z,41.06
2023-04-30T17:18:03.903Z,40.75
2023-04-30T17:23:01.632Z,40.74
2023-04-30T17:28:12.982Z,40.38
2023-04-30T17:33:23.800Z,40.67
2023-04-30T17:38:25.590Z,40.57
2023-04-30T17:55:02.613Z,41.09
2023-04-30T18:00:30.730Z,41.43
2023-04-30T18:05:42.883Z,41.33
2023-04-30T18:17:02.651Z,41.74
2023-04-30T18:41:07.995Z,42.13
2023-04-30T18:46:35.989Z,42.35
2023-04-30T18:51:50.038Z,42.22
2023-04-30T18:57:48.640Z,42.30
2023-04-30T19:03:08.032Z,42.92
2023-04-30T19:13:59.028Z,42.91
2023-04-30T19:18:58.260Z,43.39
2023-04-30T19:24:24.744Z,43.60
2023-04-30T19:29:30.590Z,43.74
2023-04-30T19:34:52.676Z,44.08
2023-04-30T19:40:22.112Z,44.15
2023-04-30T19:45:27.590Z,44.64
2023-04-30T19:51:15.246Z,44.74
2023-04-30T20:01:40.004Z,45.42
2023-04-30T20:06:36.570Z,46.13
2023-04-30T20:11:33.104Z,45.93
2023-04-30T20:16:29.673Z,46.25
2023-04-30T20:21:26.173Z,46.44
2023-04-30T20:26:25.477Z,46.78
2023-04-30T20:31:21.993Z,47.28
2023-04-30T20:36:20.216Z,47.17
2023-04-30T20:41:17.067Z,47.65
2023-04-30T20:46:14.719Z,47.80
2023-04-30T20:51:11.197Z,47.86
2023-04-30T20:56:07.977Z,47.73
2023-04-30T21:01:04.379Z,47.86
2023-04-30T21:06:00.939Z,48.18
2023-04-30T21:10:57.464Z,48.52
2023-04-30T21:15:54.847Z,48.91
2023-04-30T21:20:51.462Z,48.93
2023-04-30T21:25:48.232Z,48.89
2023-04-30T21:30:44.713Z,49.28
2023-04-30T21:35:42.271Z,49.44
2023-04-30T21:40:41.071Z,49.81
2023-04-30T21:45:37.639Z,49.97
2023-04-30T21:50:34.351Z,50.10
2023-04-30T21:55:31.074Z,50.11
2023-04-30T22:00:28.003Z,50.48
2023-04-30T22:05:24.505Z,50.66
2023-04-30T22:10:21.282Z,50.95
2023-04-30T22:15:17.749Z,51.03
2023-04-30T22:20:14.525Z,51.07
2023-04-30T22:25:10.969Z,50.73
2023-04-30T22:30:07.851Z,51.37
2023-04-30T22:35:04.554Z,50.96
2023-04-30T22:40:01.761Z,51.73
2023-04-30T22:44:59.027Z,51.69
2023-04-30T22:49:56.331Z,51.94
2023-04-30T22:54:53.001Z,51.86
2023-04-30T22:59:49.654Z,51.87
2023-04-30T23:04:49.511Z,51.87
2023-04-30T23:09:45.959Z,52.10
2023-04-30T23:14:42.483Z,51.72
2023-04-30T23:19:38.948Z,51.74
2023-04-30T23:24:35.899Z,52.00
2023-04-30T23:29:33.299Z,51.77
2023-04-30T23:34:34.250Z,52.42
2023-04-30T23:39:30.775Z,52.68
2023-04-30T23:44:27.226Z,52.34
2023-04-30T23:49:26.396Z,52.67
2023-04-30T23:54:23.264Z,52.72
2023-04-30T23:59:28.665Z,52.71
